Flight Track Log - Related Links

Times and Time Zones

All times are in EDT time to prevent confusion due to time zone crossing. See the SWA34 flight status page for this flight to view local times or setup timezone preferences in your user account.

Time Position Orientation Groundspeed Altitude Reporting Facility
EDT Latitude Longitude Course Direction KTS MPH feet Rate Location/Type
Tue 08:35:04 AM 30.5222 -81.7375 318° Northwest 193 222 2,300  Level Jacksonville Center
Tue 08:35:59 AM 30.5786 -81.7442 354° North 260 299 4,300 2,143 Climbing Jacksonville Center
Tue 08:36:14 AM 30.5953 -81.7389 15° North 261 300 4,800 2,960 Climbing Jacksonville Center
Tue 08:37:14 AM 30.6744 -81.7211 11° North 275 316 8,000 3,300 Climbing Jacksonville Center
Tue 08:38:14 AM 30.7558 -81.7033 11° North 286 329 11,400 3,450 Climbing Jacksonville Center
Tue 08:39:14 AM 30.8433 -81.6756 15° North 304 350 14,900 3,150 Climbing Jacksonville Center
Tue 08:40:14 AM 30.9325 -81.6236 27° Northeast 321 369 17,700 2,800 Climbing Jacksonville Center
Tue 08:41:14 AM 31.0236 -81.5569 32° Northeast 367 422 20,500 2,400 Climbing Jacksonville Center
Tue 08:42:14 AM 31.1211 -81.4900 30° Northeast 389 448 22,500 2,150 Climbing Jacksonville Center
Tue 08:43:14 AM 31.2267 -81.4156 31° Northeast 421 484 24,800 1,250 Climbing Jacksonville Center
Tue 08:44:14 AM 31.3322 -81.3383 32° Northeast 445 512 25,000 250 Climbing Jacksonville Center
Tue 08:45:14 AM 31.4397 -81.2464 36° Northeast 469 540 25,300 1,300 Climbing Jacksonville Center
Tue 08:46:14 AM 31.5533 -81.1567 34° Northeast 474 545 27,600 2,800 Climbing Jacksonville Center
Tue 08:47:14 AM 31.6586 -81.0717 34° Northeast 474 545 30,900 2,150 Climbing Jacksonville Center
Tue 08:48:14 AM 31.7558 -81.0039 31° Northeast 453 521 31,900 1,100 Climbing Jacksonville Center
Tue 08:49:14 AM 31.8906 -80.9400 22° Northeast 464 534 33,100 1,450 Climbing Jacksonville Center
Tue 08:50:14 AM 32.0169 -80.8761 23° Northeast 482 555 34,800 1,950 Climbing Jacksonville Center
Tue 08:51:14 AM 32.1350 -80.8194 22° Northeast 467 537 37,000 600 Climbing Jacksonville Center
Tue 08:52:14 AM 32.2428 -80.7728 20° North 450 518 36,000 -1,050 Descending Jacksonville Center
Tue 08:53:14 AM 32.3586 -80.7136 23° Northeast 445 512 34,900 -500 Descending Jacksonville Center
Tue 08:54:14 AM 32.4700 -80.6419 28° Northeast 450 518 35,000 50 Climbing Jacksonville Center
Tue 08:55:14 AM 32.5683 -80.5336 43° Northeast 462 532 35,000  Level Jacksonville Center
Tue 08:56:14 AM 32.6728 -80.4247 41° Northeast 479 551 35,000  Level Jacksonville Center
Tue 08:57:14 AM 32.7750 -80.3131 43° Northeast 491 565 35,000  Level Jacksonville Center
Tue 08:58:14 AM 32.8811 -80.2014 41° Northeast 497 572 35,000  Level Jacksonville Center
Tue 08:59:14 AM 32.9953 -80.0767 42° Northeast 513 590 35,000  Level Jacksonville Center
Tue 09:00:14 AM 33.1033 -79.9642 41° Northeast 507 583 35,000 -50 Level Jacksonville Center
Tue 09:01:14 AM 33.2072 -79.8564 41° Northeast 501 577 34,900 -50 Descending Jacksonville Center
Tue 09:02:14 AM 33.3089 -79.7436 43° Northeast 501 577 34,900  Level Jacksonville Center
Tue 09:03:14 AM 33.4083 -79.6356 42° Northeast 501 577 34,900 50 Level Jacksonville Center
Tue 09:04:14 AM 33.5119 -79.5247 42° Northeast 501 577 35,000 50 Climbing Jacksonville Center
Tue 09:05:14 AM 33.6111 -79.4161 42° Northeast 490 564 35,000  Level Jacksonville Center
Tue 09:06:14 AM 33.7103 -79.3072 42° Northeast 485 558 35,000  Level Jacksonville Center
Tue 09:07:14 AM 33.7931 -79.2117 44° Northeast 474 545 35,000  Level Jacksonville Center
Tue 09:08:14 AM 33.8942 -79.1022 42° Northeast 474 545 35,000  Level Jacksonville Center
Tue 09:09:56 AM 34.0694 -78.9111 42° Northeast 474 545 35,000 -184 Level Washington Center
Tue 09:10:57 AM 34.1706 -78.8047 41° Northeast 474 545 34,500 -694 Descending Washington Center
Tue 09:11:57 AM 34.2714 -78.6906 43° Northeast 474 545 33,600 -793 Descending Washington Center
Tue 09:12:58 AM 34.3764 -78.5814 41° Northeast 480 552 32,900 -298 Descending Washington Center
Tue 09:13:58 AM 34.4814 -78.4767 39° Northeast 480 552 33,000 51 Climbing Washington Center
Tue 09:14:56 AM 34.5861 -78.3694 40° Northeast 490 564 33,000  Level Washington Center
Tue 09:15:57 AM 34.6908 -78.2644 39° Northeast 490 564 33,000  Level Washington Center
Tue 09:16:58 AM 34.7953 -78.1567 40° Northeast 490 564 33,000  Level Washington Center
Tue 09:17:56 AM 34.8872 -78.0581 41° Northeast 490 564 33,000 -254 Level Washington Center
Tue 09:18:56 AM 34.9894 -77.9522 40° Northeast 485 558 32,500 -744 Descending Washington Center
Tue 09:19:57 AM 35.0894 -77.8486 40° Northeast 485 558 31,500 -984 Descending Washington Center
Tue 09:20:58 AM 35.1894 -77.7472 40° Northeast 473 544 30,500 -992 Descending Washington Center
Tue 09:21:58 AM 35.2914 -77.6431 40° Northeast 473 544 29,500 -1,017 Descending Washington Center
Tue 09:22:56 AM 35.3933 -77.5411 39° Northeast 468 539 28,500 -1,424 Descending Washington Center
Tue 09:23:56 AM 35.5072 -77.4650 29° Northeast 468 539 26,700 -2,083 Descending Washington Center
Tue 09:24:57 AM 35.6272 -77.3833 29° Northeast 473 544 24,300 -2,016 Descending Washington Center
Tue 09:25:58 AM 35.7433 -77.3067 28° Northeast 473 544 22,600 -1,664 Descending Washington Center
Tue 09:26:56 AM 35.8569 -77.2297 29° Northeast 468 539 21,000 -807 Descending Washington Center
Tue 09:27:57 AM 35.9644 -77.1547 29° Northeast 458 527 21,000  Level Washington Center
Tue 09:28:57 AM 36.0633 -77.0875 29° Northeast 432 497 21,000 -247 Level Washington Center
Tue 09:29:34 AM 36.1347 -77.0425 27° Northeast 402 463 20,600 -787 Descending Washington Center
Tue 09:29:58 AM 36.1642 -77.0172 35° Northeast 412 474 20,200 -2,557 Descending Washington Center
Tue 09:30:35 AM 36.2378 -76.9697 27° Northeast 410 472 18,000 -2,793 Descending Washington Center
Tue 09:30:56 AM 36.2611 -76.9494 35° Northeast 406 467 17,500 -2,361 Descending Washington Center
Tue 09:31:36 AM 36.3347 -76.9019 27° Northeast 401 461 15,600 -2,262 Descending Washington Center
Tue 09:31:57 AM 36.3597 -76.8842 30° Northeast 395 455 15,200 -2,200 Descending Washington Center
Tue 09:32:36 AM 36.4147 -76.8206 43° Northeast 368 423 13,400 -2,300 Descending Washington Center
Tue 09:32:57 AM 36.4358 -76.8003 38° Northeast 383 441 12,900 -2,300 Descending Washington Center
Tue 09:33:36 AM 36.5050 -76.7600 25° Northeast 351 404 11,100 -2,200 Descending Washington Center
Tue 09:33:57 AM 36.5219 -76.7422 40° Northeast 370 426 10,700 -1,518 Descending Washington Center
Tue 09:34:59 AM 36.5914 -76.6836 34° Northeast 334 384 9,000 -2,079 Descending Washington Center
Tue 09:35:38 AM 36.6417 -76.6378 36° Northeast 293 337 7,200 -2,421 Descending Washington Center
Tue 09:35:56 AM 36.6525 -76.6172 57° Northeast 301 346 6,700 -2,100 Descending Washington Center
Tue 09:36:38 AM 36.6717 -76.5528 70° East 258 297 5,100 -2,000 Descending Washington Center
Tue 09:36:56 AM 36.6803 -76.5319 63° Northeast 266 306 4,700 -1,791 Descending Washington Center
Tue 09:37:45 AM 36.7161 -76.4650 56° Northeast 267 307 3,100 -1,515 Descending Washington Center
Tue 09:38:39 AM 36.7542 -76.3956 56° Northeast 261 300 2,100 -917 Descending Washington Center
Tue 09:38:57 AM 36.7628 -76.3775 59° Northeast 254 292 2,000 -98 Descending Washington Center
Tue 09:39:40 AM 36.7900 -76.3336 52° Northeast 191 220 2,000 -109 Level Washington Center
Tue 09:40:47 AM 36.8217 -76.2744 56° Northeast 191 220 1,800 -567 Descending Washington Center
Tue 09:41:47 AM 36.8553 -76.2408 39° Northeast 142 163 800 -1,000 Descending Washington Center

Login

Don't have an account? Register now (free) for customized features, flight alerts, and more!